createdAt,value
2022-09-23T00:16:21.073Z,7.16
2022-09-23T00:20:13.389Z,7.08
2022-09-23T00:24:05.423Z,6.99
2022-09-23T00:43:47.877Z,6.81
2022-09-23T00:47:40.207Z,6.67
2022-09-23T01:03:30.124Z,6.45
2022-09-23T01:07:21.985Z,6.38
2022-09-23T01:11:17.321Z,6.41
2022-09-23T01:15:20.851Z,6.42
2022-09-23T01:23:19.699Z,6.44
2022-09-23T01:27:16.645Z,6.35
2022-09-23T01:31:12.838Z,6.29
2022-09-23T01:35:20.227Z,6.26
2022-09-23T01:39:15.311Z,6.26
2022-09-23T01:43:04.629Z,6.23
2022-09-23T01:46:56.723Z,6.25
2022-09-23T01:51:18.613Z,6.27
2022-09-23T01:55:20.425Z,6.25
2022-09-23T01:59:10.726Z,6.26
2022-09-23T02:03:11.581Z,6.20
2022-09-23T02:07:03.804Z,6.15
2022-09-23T02:11:04.837Z,6.13
2022-09-23T02:19:08.172Z,6.08
2022-09-23T02:23:01.398Z,6.06
2022-09-23T02:27:09.874Z,6.04
2022-09-23T02:31:14.357Z,6.02
2022-09-23T02:35:06.770Z,6.00
2022-09-23T02:39:01.431Z,6.01
2022-09-23T02:43:06.455Z,5.98
2022-09-23T02:50:46.924Z,5.93
2022-09-23T02:54:37.217Z,5.90
2022-09-23T02:58:32.082Z,5.85
2022-09-23T03:02:25.138Z,5.87
2022-09-23T03:06:20.053Z,5.84
2022-09-23T03:10:17.469Z,5.87
2022-09-23T03:14:03.478Z,5.93
2022-09-23T03:21:55.011Z,6.10
2022-09-23T03:25:47.242Z,6.16
2022-09-23T03:29:35.080Z,6.22
2022-09-23T04:00:35.678Z,6.47
2022-09-23T04:04:21.097Z,6.43
2022-09-23T04:08:12.292Z,6.44
2022-09-23T04:12:04.699Z,6.47
2022-09-23T04:27:52.186Z,6.59
2022-09-23T04:31:47.934Z,6.57
2022-09-23T04:35:40.572Z,6.58
2022-09-23T04:39:34.315Z,6.65
2022-09-23T04:59:08.798Z,6.96
2022-09-23T05:02:59.868Z,7.03
2022-09-23T05:22:15.774Z,7.55
2022-09-23T05:26:07.966Z,7.64
2022-09-23T05:30:01.476Z,7.69
2022-09-23T05:33:54.367Z,7.75
2022-09-23T05:49:59.591Z,8.37
2022-09-23T05:53:51.036Z,8.52
2022-09-23T05:57:44.027Z,8.63
2022-09-23T06:12:25.526Z,9.13
2022-09-23T06:16:18.226Z,9.19
2022-09-23T06:20:10.324Z,9.35
2022-09-23T06:24:05.990Z,9.51
2022-09-23T06:35:59.212Z,10.26
2022-09-23T06:39:53.165Z,10.51
2022-09-23T06:43:49.880Z,10.72
2022-09-23T06:59:23.757Z,11.54
2022-09-23T07:03:15.099Z,11.94
2022-09-23T07:07:07.165Z,12.13
2022-09-23T07:10:59.770Z,12.06
2022-09-23T07:30:17.875Z,12.17
2022-09-23T07:34:15.531Z,12.37
2022-09-23T07:38:08.802Z,12.38
2022-09-23T07:42:01.917Z,12.54
2022-09-23T07:57:52.569Z,13.30
2022-09-23T08:01:26.721Z,13.38
2022-09-23T08:05:09.189Z,13.25
2022-09-23T08:28:24.152Z,13.73
2022-09-23T08:32:15.967Z,13.65
2022-09-23T08:36:08.284Z,13.73
2022-09-23T08:39:53.222Z,14.10
2022-09-23T08:59:03.239Z,15.04
2022-09-23T09:02:56.685Z,14.99
2022-09-23T09:06:53.709Z,15.01
2022-09-23T09:10:43.407Z,15.42
2022-09-23T09:14:36.018Z,15.71
2022-09-23T09:18:43.645Z,16.02
2022-09-23T09:22:15.917Z,16.36
2022-09-23T09:26:28.907Z,16.33
2022-09-23T09:30:20.500Z,16.34
2022-09-23T09:34:22.634Z,16.40
2022-09-23T09:38:16.920Z,16.11
2022-09-23T09:42:01.840Z,15.87
2022-09-23T09:46:03.851Z,15.93
2022-09-23T09:50:11.838Z,16.04
2022-09-23T09:54:07.447Z,15.98
2022-09-23T09:57:56.940Z,16.03
2022-09-23T10:01:49.518Z,16.04
2022-09-23T10:05:32.759Z,16.17
2022-09-23T10:09:01.160Z,16.23
2022-09-23T10:12:38.945Z,16.06
2022-09-23T10:16:18.496Z,15.89
2022-09-23T10:19:55.734Z,16.17
2022-09-23T10:23:47.554Z,16.34
2022-09-23T10:27:39.697Z,16.44
2022-09-23T10:43:07.512Z,15.83
2022-09-23T11:10:53.392Z,16.36
2022-09-23T11:15:02.585Z,16.49
2022-09-23T11:19:06.194Z,16.55
2022-09-23T11:22:49.336Z,16.73
2022-09-23T11:26:46.626Z,16.66
2022-09-23T11:30:39.826Z,16.61
2022-09-23T11:34:43.475Z,16.42
2022-09-23T11:38:25.372Z,17.10
2022-09-23T11:42:20.617Z,17.43
2022-09-23T11:46:09.513Z,17.76
2022-09-23T11:50:12.998Z,17.65
2022-09-23T11:53:54.801Z,17.78
2022-09-23T11:57:48.188Z,18.04
2022-09-23T12:01:36.562Z,17.98
2022-09-23T12:05:29.625Z,17.60
2022-09-23T12:09:35.782Z,17.06
2022-09-23T12:13:38.657Z,16.80
2022-09-23T12:17:45.561Z,16.65
2022-09-23T12:21:48.671Z,16.58
2022-09-23T12:25:18.626Z,16.52
2022-09-23T12:29:15.823Z,16.19
2022-09-23T12:33:08.240Z,15.99
2022-09-23T12:37:07.743Z,15.79
2022-09-23T12:41:05.357Z,15.60
2022-09-23T12:45:08.626Z,15.36
2022-09-23T12:48:59.364Z,15.20
2022-09-23T12:52:54.260Z,15.04
2022-09-23T12:56:50.505Z,14.87
2022-09-23T13:00:56.791Z,14.72
2022-09-23T13:04:47.078Z,14.68
2022-09-23T13:16:18.495Z,14.74
2022-09-23T13:47:21.964Z,15.56
2022-09-23T13:51:14.427Z,15.27
2022-09-23T13:55:08.330Z,15.06
2022-09-23T13:59:01.754Z,14.90
2022-09-23T14:02:55.594Z,14.76
2022-09-23T14:06:51.749Z,14.67
2022-09-23T15:53:36.059Z,11.37
2022-09-23T15:57:21.239Z,11.34
2022-09-23T16:01:16.439Z,11.32
2022-09-23T16:05:08.851Z,11.35
2022-09-23T16:24:45.205Z,11.21
2022-09-23T16:28:37.790Z,11.14
2022-09-23T16:32:29.928Z,11.10
2022-09-23T16:36:22.328Z,11.07
2022-09-23T16:55:40.981Z,10.87
2022-09-23T16:59:33.592Z,10.71
2022-09-23T17:03:25.141Z,10.59
2022-09-23T17:07:18.720Z,10.54
2022-09-23T17:19:07.592Z,10.41
2022-09-23T17:23:00.351Z,10.34
2022-09-23T17:26:53.708Z,10.28
2022-09-23T17:30:47.815Z,10.29
2022-09-23T17:50:16.077Z,10.40
2022-09-23T17:54:08.174Z,10.39
2022-09-23T17:58:03.525Z,10.39
2022-09-23T18:13:51.058Z,10.32
2022-09-23T18:17:42.962Z,10.30
2022-09-23T18:21:35.333Z,10.18
2022-09-23T18:25:39.122Z,10.09
2022-09-23T18:45:11.663Z,10.21
2022-09-23T18:49:00.479Z,10.16
2022-09-23T18:52:52.212Z,10.18
2022-09-23T19:12:32.685Z,9.94
2022-09-23T19:16:25.206Z,9.90
2022-09-23T19:20:13.984Z,9.96
2022-09-23T19:24:06.749Z,10.02
2022-09-23T19:40:07.667Z,10.24
2022-09-23T19:44:00.042Z,10.25
2022-09-23T19:47:51.285Z,10.25
2022-09-23T19:51:46.646Z,10.24
2022-09-23T20:03:30.443Z,10.20
2022-09-23T20:07:23.293Z,10.19
2022-09-23T20:11:13.212Z,10.19
2022-09-23T20:15:05.462Z,10.17
2022-09-23T20:27:04.305Z,10.15
2022-09-23T20:30:54.524Z,10.10
2022-09-23T20:46:56.322Z,10.17
2022-09-23T20:50:41.251Z,10.11
2022-09-23T20:54:33.343Z,10.11
2022-09-23T20:58:26.845Z,10.05
2022-09-23T21:17:35.470Z,9.82
2022-09-23T21:21:36.790Z,9.76
2022-09-23T21:25:31.841Z,9.66
2022-09-23T21:29:24.191Z,9.55
2022-09-23T21:33:16.320Z,9.47
2022-09-23T21:53:02.627Z,9.08
2022-09-23T21:56:56.083Z,8.93
2022-09-23T22:00:49.522Z,8.86
2022-09-23T22:04:40.017Z,8.73
2022-09-23T22:12:47.062Z,8.53
2022-09-23T22:16:38.405Z,8.40
2022-09-23T22:20:32.519Z,8.29
2022-09-23T22:36:22.280Z,7.81
2022-09-23T22:39:13.711Z,7.62
2022-09-23T22:43:05.253Z,7.55
2022-09-23T22:46:51.839Z,7.51
2022-09-23T23:06:08.688Z,7.28
2022-09-23T23:10:00.186Z,7.10
2022-09-23T23:13:55.151Z,6.89
2022-09-23T23:17:45.422Z,6.79
2022-09-23T23:21:38.374Z,6.74
2022-09-23T23:41:13.483Z,6.34
2022-09-23T23:45:06.454Z,6.23
2022-09-23T23:48:57.575Z,6.14
2022-09-23T23:52:48.890Z,6.06
